createdAt,value
2018-06-30T00:01:46.691Z,22.40
2018-06-30T00:04:14.487Z,22.40
2018-06-30T00:06:42.394Z,22.40
2018-06-30T00:09:10.209Z,22.40
2018-06-30T00:11:37.953Z,22.40
2018-06-30T00:14:05.787Z,22.40
2018-06-30T00:16:33.506Z,22.40
2018-06-30T00:19:01.206Z,22.40
2018-06-30T00:21:29.003Z,22.30
2018-06-30T00:23:56.718Z,22.30
2018-06-30T00:26:24.461Z,22.30
2018-06-30T00:28:52.150Z,22.30
2018-06-30T00:31:19.851Z,22.20
2018-06-30T00:33:47.534Z,22.20
2018-06-30T00:36:15.373Z,22.20
2018-06-30T00:38:43.096Z,22.20
2018-06-30T00:41:10.971Z,22.20
2018-06-30T00:43:38.726Z,22.10
2018-06-30T00:46:06.545Z,22.10
2018-06-30T00:48:34.422Z,22.10
2018-06-30T00:51:02.164Z,22.10
2018-06-30T00:53:29.970Z,22.00
2018-06-30T00:55:57.672Z,22.00
2018-06-30T00:58:26.325Z,22.10
2018-06-30T01:00:54.220Z,22.00
2018-06-30T01:03:21.954Z,22.00
2018-06-30T01:05:49.743Z,22.00
2018-06-30T01:08:17.476Z,22.00
2018-06-30T01:10:45.243Z,21.90
2018-06-30T01:13:12.953Z,21.90
2018-06-30T01:15:40.696Z,21.80
2018-06-30T01:18:08.425Z,21.80
2018-06-30T01:20:36.133Z,21.80
2018-06-30T01:23:03.970Z,21.80
2018-06-30T01:25:31.662Z,21.80
2018-06-30T01:27:59.424Z,21.70
2018-06-30T01:30:27.174Z,21.70
2018-06-30T01:32:54.939Z,21.70
2018-06-30T01:35:22.678Z,21.70
2018-06-30T01:37:50.367Z,21.70
2018-06-30T01:40:18.068Z,21.60
2018-06-30T01:42:45.845Z,21.60
2018-06-30T01:45:13.587Z,21.60
2018-06-30T01:47:41.343Z,21.60
2018-06-30T01:50:09.086Z,21.60
2018-06-30T01:52:36.778Z,21.50
2018-06-30T01:55:04.482Z,21.50
2018-06-30T01:57:32.248Z,21.50
2018-06-30T01:59:59.955Z,21.50
2018-06-30T02:02:27.671Z,21.50
2018-06-30T02:04:55.353Z,21.40
2018-06-30T02:07:23.094Z,21.40
2018-06-30T02:09:50.826Z,21.40
2018-06-30T02:12:18.618Z,21.30
2018-06-30T02:14:46.448Z,21.30
2018-06-30T02:17:14.150Z,21.20
2018-06-30T02:19:41.888Z,21.20
2018-06-30T02:22:09.688Z,21.20
2018-06-30T02:24:37.428Z,21.20
2018-06-30T02:27:05.123Z,21.20
2018-06-30T02:29:33.003Z,21.20
2018-06-30T02:32:00.683Z,21.20
2018-06-30T02:34:28.421Z,21.20
2018-06-30T02:36:56.141Z,21.20
2018-06-30T02:39:23.843Z,21.20
2018-06-30T02:41:51.591Z,21.10
2018-06-30T02:44:19.350Z,21.10
2018-06-30T02:46:47.173Z,21.10
2018-06-30T02:49:14.847Z,21.10
2018-06-30T02:51:42.563Z,21.00
2018-06-30T02:54:10.251Z,21.00
2018-06-30T02:56:37.992Z,21.00
2018-06-30T02:59:05.692Z,21.00
2018-06-30T03:01:33.420Z,21.00
2018-06-30T03:04:01.211Z,20.90
2018-06-30T03:06:28.944Z,20.90
2018-06-30T03:08:56.688Z,20.90
2018-06-30T03:11:24.404Z,20.80
2018-06-30T03:13:52.102Z,20.80
2018-06-30T03:16:19.875Z,20.80
2018-06-30T03:18:48.469Z,20.80
2018-06-30T03:21:16.192Z,20.70
2018-06-30T03:23:43.919Z,20.70
2018-06-30T03:26:11.869Z,20.70
2018-06-30T03:28:39.617Z,20.70
2018-06-30T03:31:08.202Z,20.60
2018-06-30T03:33:35.931Z,20.60
2018-06-30T03:36:03.703Z,20.60
2018-06-30T03:38:31.459Z,20.60
2018-06-30T03:40:59.173Z,20.60
2018-06-30T03:43:26.902Z,20.60
2018-06-30T03:45:54.623Z,20.50
2018-06-30T03:48:22.359Z,20.50
2018-06-30T03:50:50.060Z,20.50
2018-06-30T03:53:17.815Z,20.50
2018-06-30T03:55:45.531Z,20.50
2018-06-30T03:58:13.219Z,20.40
2018-06-30T04:00:41.013Z,20.40
2018-06-30T04:03:08.714Z,20.40
2018-06-30T04:05:36.409Z,20.40
2018-06-30T04:08:04.144Z,20.40
2018-06-30T04:10:31.875Z,20.40
2018-06-30T04:12:59.595Z,20.40
2018-06-30T04:15:27.321Z,20.40
2018-06-30T04:17:55.039Z,20.40
2018-06-30T04:20:22.749Z,20.40
2018-06-30T04:25:17.870Z,20.40
2018-06-30T04:27:45.570Z,20.40
2018-06-30T04:30:13.350Z,20.40
2018-06-30T04:32:41.044Z,20.30
2018-06-30T04:37:36.253Z,20.40
2018-06-30T04:40:04.295Z,20.40
2018-06-30T04:42:32.001Z,20.40
2018-06-30T04:44:59.766Z,20.40
2018-06-30T04:47:27.452Z,20.40
2018-06-30T04:49:55.161Z,20.50
2018-06-30T04:52:22.893Z,20.50
2018-06-30T04:54:50.667Z,20.50
2018-06-30T04:57:18.365Z,20.50
2018-06-30T04:59:46.168Z,20.60
2018-06-30T05:02:13.919Z,20.60
2018-06-30T05:04:41.608Z,20.60
2018-06-30T05:07:09.839Z,20.60
2018-06-30T05:09:37.546Z,20.60
2018-06-30T05:12:05.642Z,20.60
2018-06-30T05:14:33.412Z,20.70
2018-06-30T05:17:01.211Z,20.70
2018-06-30T05:19:28.966Z,20.70
2018-06-30T05:21:56.799Z,20.80
2018-06-30T05:24:24.526Z,20.80
2018-06-30T05:26:52.264Z,20.80
2018-06-30T05:29:19.967Z,20.80
2018-06-30T05:31:47.652Z,20.80
2018-06-30T05:34:15.387Z,20.80
2018-06-30T05:36:43.199Z,20.90
2018-06-30T05:39:11.005Z,20.90
2018-06-30T05:41:39.621Z,20.90
2018-06-30T05:44:08.156Z,21.00
2018-06-30T05:46:36.707Z,21.10
2018-06-30T05:49:05.365Z,21.10
2018-06-30T05:51:33.896Z,21.10
2018-06-30T05:54:02.400Z,21.20
2018-06-30T05:56:30.948Z,21.30
2018-06-30T05:58:59.487Z,21.30
2018-06-30T06:01:28.206Z,21.30
2018-06-30T06:06:25.112Z,21.40
2018-06-30T06:08:53.830Z,21.50
2018-06-30T06:11:22.375Z,21.50
2018-06-30T06:13:50.895Z,21.60
2018-06-30T06:16:19.376Z,21.60
2018-06-30T06:18:47.879Z,21.70
2018-06-30T06:21:16.412Z,21.80
2018-06-30T06:23:44.936Z,21.90
2018-06-30T06:26:13.719Z,21.90
2018-06-30T06:28:42.324Z,22.00
2018-06-30T06:31:10.871Z,22.00
2018-06-30T06:33:39.431Z,22.00
2018-06-30T06:36:08.141Z,22.10
2018-06-30T06:38:36.854Z,22.20
2018-06-30T06:41:05.655Z,22.20
2018-06-30T06:43:34.350Z,22.20
2018-06-30T06:46:02.907Z,22.30
2018-06-30T06:48:31.464Z,22.30
2018-06-30T06:51:00.012Z,22.30
2018-06-30T06:53:28.476Z,22.40
2018-06-30T06:55:57.133Z,22.40
2018-06-30T06:58:25.644Z,22.50
2018-06-30T07:00:54.419Z,22.50
2018-06-30T07:03:22.943Z,22.50
2018-06-30T07:05:51.876Z,22.50
2018-06-30T07:08:21.655Z,22.60
2018-06-30T07:10:51.027Z,22.60
2018-06-30T07:13:19.688Z,22.60
2018-06-30T07:15:49.017Z,22.70
2018-06-30T07:18:18.185Z,22.70
2018-06-30T07:20:47.428Z,22.70
2018-06-30T07:23:16.246Z,22.70
2018-06-30T07:25:45.173Z,22.80
2018-06-30T07:28:14.379Z,22.80
2018-06-30T07:30:43.336Z,22.80
2018-06-30T07:33:12.656Z,22.80
2018-06-30T07:35:41.614Z,22.80
2018-06-30T07:38:10.936Z,22.90
2018-06-30T07:40:39.587Z,22.90
2018-06-30T07:43:08.354Z,22.90
2018-06-30T07:45:36.922Z,22.90
2018-06-30T07:48:06.116Z,22.90
2018-06-30T07:50:34.938Z,23.00
2018-06-30T07:53:03.577Z,23.00
2018-06-30T07:55:32.059Z,23.00
2018-06-30T07:58:00.612Z,23.10
2018-06-30T08:00:29.287Z,23.10
2018-06-30T08:02:57.876Z,23.10
2018-06-30T08:07:54.700Z,23.20
2018-06-30T08:10:23.228Z,23.20
2018-06-30T08:12:51.861Z,23.20
2018-06-30T08:15:20.375Z,23.30
2018-06-30T08:17:49.139Z,23.30
2018-06-30T08:20:17.651Z,23.30
2018-06-30T08:22:46.306Z,23.40
2018-06-30T08:25:15.027Z,23.40
2018-06-30T08:27:43.660Z,23.50
2018-06-30T08:30:12.249Z,23.50
2018-06-30T08:32:40.823Z,23.50
2018-06-30T08:35:09.348Z,23.60
2018-06-30T08:37:37.921Z,23.60
2018-06-30T08:40:06.548Z,23.70
2018-06-30T08:42:35.206Z,23.70
2018-06-30T08:45:03.845Z,23.80
2018-06-30T08:47:32.406Z,23.80
2018-06-30T08:50:00.893Z,23.90
2018-06-30T08:52:29.424Z,24.00
2018-06-30T08:54:57.929Z,24.00
2018-06-30T08:57:26.480Z,24.10
2018-06-30T08:59:55.057Z,24.10
2018-06-30T09:02:23.703Z,24.10
2018-06-30T09:04:52.458Z,24.10
2018-06-30T09:07:21.101Z,24.20
2018-06-30T09:09:49.779Z,24.20
2018-06-30T09:12:18.589Z,24.20
2018-06-30T09:14:47.015Z,24.30
2018-06-30T09:17:15.727Z,24.40
2018-06-30T09:19:44.319Z,24.40
2018-06-30T09:22:12.915Z,24.50
2018-06-30T09:24:41.543Z,24.60
2018-06-30T09:27:10.732Z,24.60
2018-06-30T09:29:39.615Z,24.70
2018-06-30T09:32:08.750Z,24.70
2018-06-30T09:34:37.316Z,24.80
2018-06-30T09:37:06.077Z,24.90
2018-06-30T09:39:34.616Z,24.90
2018-06-30T09:42:03.357Z,25.00
2018-06-30T09:44:32.279Z,25.10
2018-06-30T09:47:00.820Z,25.10
2018-06-30T09:49:29.300Z,25.20
2018-06-30T09:51:57.874Z,25.20
2018-06-30T09:54:26.447Z,25.20
2018-06-30T09:56:55.008Z,25.30
2018-06-30T09:59:23.771Z,25.30
2018-06-30T10:01:52.473Z,25.40
2018-06-30T10:04:21.008Z,25.50
2018-06-30T10:06:49.636Z,25.60
2018-06-30T10:09:18.188Z,25.70
2018-06-30T10:11:46.835Z,25.70
2018-06-30T10:14:15.355Z,25.90
2018-06-30T10:16:44.049Z,25.90
2018-06-30T10:19:12.697Z,26.00
2018-06-30T10:21:41.268Z,26.00
2018-06-30T10:24:10.104Z,26.10
2018-06-30T10:26:39.161Z,26.20
2018-06-30T10:29:07.760Z,26.30
2018-06-30T10:31:36.577Z,26.30
2018-06-30T10:34:05.487Z,26.40
2018-06-30T10:36:33.978Z,26.50
2018-06-30T10:41:31.024Z,26.60
2018-06-30T10:43:59.651Z,26.80
2018-06-30T10:46:28.238Z,26.90
2018-06-30T10:48:56.964Z,27.10
2018-06-30T10:51:25.980Z,27.20
2018-06-30T10:53:54.539Z,27.30
2018-06-30T10:56:23.051Z,27.30
2018-06-30T10:58:51.816Z,27.40
2018-06-30T11:01:20.541Z,27.50
2018-06-30T11:03:49.073Z,27.50
2018-06-30T11:06:17.659Z,27.60
2018-06-30T11:08:46.180Z,27.70
2018-06-30T11:11:14.724Z,27.80
2018-06-30T11:13:43.264Z,27.90
2018-06-30T11:16:11.910Z,28.00
2018-06-30T11:18:40.563Z,28.10
2018-06-30T11:21:09.192Z,28.20
2018-06-30T11:23:37.837Z,28.30
2018-06-30T11:26:06.535Z,28.40
2018-06-30T11:28:35.117Z,28.50
2018-06-30T11:31:03.751Z,28.50
2018-06-30T11:33:32.362Z,28.60
2018-06-30T11:36:00.970Z,28.70
2018-06-30T11:38:29.611Z,28.90
2018-06-30T11:40:58.216Z,29.00
2018-06-30T11:43:26.747Z,29.10
2018-06-30T11:45:55.412Z,29.30
2018-06-30T11:48:23.891Z,29.40
2018-06-30T11:50:52.446Z,29.50
2018-06-30T11:53:21.229Z,29.60
2018-06-30T11:55:49.767Z,29.80
2018-06-30T11:58:18.283Z,29.90
2018-06-30T12:00:47.062Z,29.90
2018-06-30T12:03:15.630Z,30.00
2018-06-30T12:05:44.150Z,30.10
2018-06-30T12:08:12.761Z,30.20
2018-06-30T12:10:41.430Z,30.30
2018-06-30T12:13:09.996Z,30.30
2018-06-30T12:15:38.804Z,30.40
2018-06-30T12:18:07.711Z,30.50
2018-06-30T12:20:36.231Z,30.60
2018-06-30T12:23:04.747Z,30.80
2018-06-30T12:25:33.667Z,30.80
2018-06-30T12:30:30.377Z,30.90
2018-06-30T12:32:59.074Z,30.90
2018-06-30T12:35:26.774Z,30.90
2018-06-30T12:37:54.515Z,31.00
2018-06-30T12:40:22.224Z,30.90
2018-06-30T12:42:50.068Z,31.00
2018-06-30T12:45:17.961Z,31.10
2018-06-30T12:47:45.730Z,31.20
2018-06-30T12:50:13.638Z,31.30
2018-06-30T12:52:42.265Z,31.30
2018-06-30T12:55:11.161Z,31.30
2018-06-30T12:57:40.064Z,31.30
2018-06-30T13:00:08.596Z,31.40
2018-06-30T13:02:37.413Z,31.50
2018-06-30T13:05:05.747Z,31.50
2018-06-30T13:07:34.248Z,31.60
2018-06-30T13:10:02.921Z,31.70
2018-06-30T13:12:31.785Z,31.80
2018-06-30T13:15:00.083Z,31.90
2018-06-30T13:17:28.435Z,31.90
2018-06-30T13:19:56.714Z,31.90
2018-06-30T13:22:25.323Z,31.90
2018-06-30T13:27:20.968Z,32.00
2018-06-30T13:29:48.854Z,31.90
2018-06-30T13:32:16.913Z,31.90
2018-06-30T13:34:44.771Z,32.00
2018-06-30T13:37:12.663Z,32.10
2018-06-30T13:39:40.420Z,32.20
2018-06-30T13:42:08.357Z,32.40
2018-06-30T13:44:36.123Z,32.50
2018-06-30T13:47:03.979Z,32.60
2018-06-30T13:49:31.862Z,32.30
2018-06-30T13:51:59.625Z,32.10
2018-06-30T13:54:27.492Z,31.80
2018-06-30T13:56:56.207Z,31.50
2018-06-30T13:59:24.873Z,31.60
2018-06-30T14:01:53.611Z,31.70
2018-06-30T14:04:22.331Z,31.80
2018-06-30T14:06:51.007Z,32.10
2018-06-30T14:09:19.572Z,32.30
2018-06-30T14:11:48.177Z,32.40
2018-06-30T14:14:16.669Z,32.50
2018-06-30T14:16:45.258Z,32.80
2018-06-30T14:19:13.973Z,32.80
2018-06-30T14:21:42.612Z,32.60
2018-06-30T14:24:11.159Z,32.30
2018-06-30T14:26:39.854Z,32.10
2018-06-30T14:29:08.461Z,32.00
2018-06-30T14:31:37.213Z,32.00
2018-06-30T14:34:05.828Z,32.20
2018-06-30T14:39:02.777Z,32.50
2018-06-30T14:41:31.334Z,32.60
2018-06-30T14:43:59.952Z,32.80
2018-06-30T14:46:28.548Z,32.90
2018-06-30T14:48:57.476Z,33.00
2018-06-30T14:51:26.041Z,33.00
2018-06-30T14:53:54.660Z,32.90
2018-06-30T14:56:23.212Z,32.80
2018-06-30T14:58:51.808Z,32.60
2018-06-30T15:01:20.547Z,32.60
2018-06-30T15:03:49.163Z,32.60
2018-06-30T15:06:17.740Z,32.60
2018-06-30T15:08:46.267Z,32.60
2018-06-30T15:11:14.852Z,32.70
2018-06-30T15:13:43.889Z,32.70
2018-06-30T15:16:12.452Z,32.80
2018-06-30T15:18:41.071Z,32.80
2018-06-30T15:21:09.869Z,32.90
2018-06-30T15:23:38.589Z,33.00
2018-06-30T15:26:07.252Z,32.90
2018-06-30T15:28:36.048Z,33.00
2018-06-30T15:31:04.715Z,32.90
2018-06-30T15:33:33.241Z,32.80
2018-06-30T15:36:02.011Z,32.90
2018-06-30T15:38:30.519Z,33.00
2018-06-30T15:40:59.117Z,32.90
2018-06-30T15:43:27.647Z,32.90
2018-06-30T15:45:56.252Z,32.90
2018-06-30T15:48:24.835Z,32.90
2018-06-30T15:50:53.502Z,32.90
2018-06-30T15:53:22.143Z,32.90
2018-06-30T15:55:50.669Z,32.90
2018-06-30T15:58:19.216Z,32.90
2018-06-30T16:00:48.010Z,32.90
2018-06-30T16:03:16.743Z,32.80
2018-06-30T16:05:45.372Z,32.70
2018-06-30T16:08:13.131Z,32.70
2018-06-30T16:10:41.684Z,32.60
2018-06-30T16:13:10.265Z,32.60
2018-06-30T16:15:38.911Z,32.50
2018-06-30T16:18:07.832Z,32.50
2018-06-30T16:20:36.474Z,32.40
2018-06-30T16:23:05.114Z,32.30
2018-06-30T16:25:33.887Z,32.20
2018-06-30T16:28:02.491Z,32.10
2018-06-30T16:30:31.340Z,32.10
2018-06-30T16:32:59.966Z,32.00
2018-06-30T16:35:28.620Z,32.00
2018-06-30T16:40:25.621Z,32.00
2018-06-30T16:42:54.145Z,31.90
2018-06-30T16:45:22.869Z,31.80
2018-06-30T16:47:51.444Z,31.80
2018-06-30T16:50:20.107Z,31.90
2018-06-30T16:52:48.673Z,31.80
2018-06-30T16:55:17.257Z,31.80
2018-06-30T16:57:45.895Z,31.60
2018-06-30T17:00:14.461Z,31.50
2018-06-30T17:02:43.023Z,31.40
2018-06-30T17:05:11.632Z,31.30
2018-06-30T17:07:40.189Z,31.30
2018-06-30T17:10:08.851Z,31.20
2018-06-30T17:12:37.394Z,31.20
2018-06-30T17:15:06.282Z,31.20
2018-06-30T17:17:34.920Z,31.10
2018-06-30T17:20:03.519Z,31.00
2018-06-30T17:22:32.109Z,30.90
2018-06-30T17:25:00.764Z,30.80
2018-06-30T17:27:29.316Z,30.70
2018-06-30T17:29:57.848Z,30.70
2018-06-30T17:32:26.408Z,30.70
2018-06-30T17:34:55.147Z,30.60
2018-06-30T17:37:24.072Z,30.60
2018-06-30T17:39:52.634Z,30.50
2018-06-30T17:42:21.387Z,30.40
2018-06-30T17:44:49.908Z,30.40
2018-06-30T17:47:18.479Z,30.30
2018-06-30T17:49:47.151Z,30.20
2018-06-30T17:52:15.091Z,30.10
2018-06-30T17:54:42.877Z,30.00
2018-06-30T17:57:10.751Z,30.00
2018-06-30T17:59:38.961Z,30.00
2018-06-30T18:02:07.494Z,29.90
2018-06-30T18:04:36.061Z,29.80
2018-06-30T18:07:05.596Z,29.70
2018-06-30T18:09:35.078Z,29.60
2018-06-30T18:12:03.721Z,29.50
2018-06-30T18:14:32.399Z,29.50
2018-06-30T18:17:01.888Z,29.50
2018-06-30T18:19:31.368Z,29.50
2018-06-30T18:22:00.753Z,29.50
2018-06-30T18:24:29.315Z,29.40
2018-06-30T18:26:58.282Z,29.40
2018-06-30T18:29:26.953Z,29.30
2018-06-30T18:31:56.318Z,29.30
2018-06-30T18:34:24.906Z,29.20
2018-06-30T18:36:54.568Z,29.10
2018-06-30T18:39:23.804Z,29.10
2018-06-30T18:41:53.267Z,29.00
2018-06-30T18:44:21.890Z,29.00
2018-06-30T18:46:50.530Z,29.00
2018-06-30T18:49:19.169Z,29.00
2018-06-30T18:51:47.919Z,29.00
2018-06-30T18:54:16.636Z,29.00
2018-06-30T18:56:45.300Z,28.90
2018-06-30T18:59:13.919Z,28.90
2018-06-30T19:01:42.585Z,28.80
2018-06-30T19:04:11.411Z,28.90
2018-06-30T19:06:40.053Z,28.90
2018-06-30T19:09:10.170Z,28.80
2018-06-30T19:11:39.149Z,28.80
2018-06-30T19:14:08.582Z,28.80
2018-06-30T19:16:37.371Z,28.70
2018-06-30T19:19:06.255Z,28.70
2018-06-30T19:21:34.895Z,28.60
2018-06-30T19:24:03.737Z,28.50
2018-06-30T19:26:32.428Z,28.30
2018-06-30T19:29:01.098Z,28.20
2018-06-30T19:31:29.747Z,28.10
2018-06-30T19:33:58.653Z,28.00
2018-06-30T19:36:27.274Z,27.90
2018-06-30T19:38:56.116Z,27.80
2018-06-30T19:41:25.626Z,27.60
2018-06-30T19:43:54.957Z,27.60
2018-06-30T19:46:24.256Z,27.40
2018-06-30T19:48:53.103Z,27.30
2018-06-30T19:51:21.797Z,27.20
2018-06-30T19:53:50.468Z,27.10
2018-06-30T19:56:19.954Z,27.00
2018-06-30T19:58:48.762Z,26.90
2018-06-30T20:01:17.399Z,26.90
2018-06-30T20:03:46.694Z,26.80
2018-06-30T20:06:15.251Z,26.80
2018-06-30T20:08:44.020Z,26.70
2018-06-30T20:11:12.688Z,26.70
2018-06-30T20:13:41.323Z,26.50
2018-06-30T20:16:09.957Z,26.40
2018-06-30T20:18:39.423Z,26.40
2018-06-30T20:21:09.041Z,26.30
2018-06-30T20:23:37.645Z,26.30
2018-06-30T20:26:06.704Z,26.20
2018-06-30T20:28:35.642Z,26.10
2018-06-30T20:31:04.362Z,26.00
2018-06-30T20:33:33.016Z,26.00
2018-06-30T20:36:01.805Z,26.00
2018-06-30T20:40:59.303Z,25.90
2018-06-30T20:43:27.872Z,25.90
2018-06-30T20:48:24.648Z,25.80
2018-06-30T20:50:53.416Z,25.80
2018-06-30T20:53:22.132Z,25.80
2018-06-30T20:55:50.827Z,25.70
2018-06-30T20:58:19.420Z,25.70
2018-06-30T21:00:48.051Z,25.60
2018-06-30T21:03:16.699Z,25.60
2018-06-30T21:05:45.407Z,25.60
2018-06-30T21:08:14.119Z,25.60
2018-06-30T21:10:42.733Z,25.60
2018-06-30T21:13:11.430Z,25.50
2018-06-30T21:15:40.072Z,25.50
2018-06-30T21:18:08.620Z,25.50
2018-06-30T21:20:37.291Z,25.40
2018-06-30T21:23:06.160Z,25.40
2018-06-30T21:25:34.714Z,25.40
2018-06-30T21:28:03.624Z,25.40
2018-06-30T21:30:32.190Z,25.30
2018-06-30T21:33:00.844Z,25.30
2018-06-30T21:35:29.384Z,25.30
2018-06-30T21:37:57.992Z,25.20
2018-06-30T21:40:26.670Z,25.20
2018-06-30T21:42:55.404Z,25.10
2018-06-30T21:45:24.065Z,25.00
2018-06-30T21:47:52.890Z,24.90
2018-06-30T21:50:21.498Z,24.80
2018-06-30T21:52:50.240Z,24.70
2018-06-30T21:55:18.809Z,24.70
2018-06-30T21:57:47.475Z,24.60
2018-06-30T22:00:18.579Z,24.50
2018-06-30T22:02:47.183Z,24.40
2018-06-30T22:05:15.776Z,24.30
2018-06-30T22:07:44.413Z,24.30
2018-06-30T22:10:13.073Z,24.30
2018-06-30T22:12:41.746Z,24.20
2018-06-30T22:17:38.710Z,24.10
2018-06-30T22:22:35.847Z,24.10
2018-06-30T22:25:04.553Z,24.00
2018-06-30T22:30:01.649Z,23.90
2018-06-30T22:32:30.219Z,23.90
2018-06-30T22:34:58.884Z,23.90
2018-06-30T22:37:27.757Z,23.90
2018-06-30T22:40:07.729Z,23.90
2018-06-30T22:42:36.568Z,23.90
2018-06-30T22:45:05.276Z,23.90
2018-06-30T22:47:33.989Z,23.80
2018-06-30T22:50:02.576Z,23.80
2018-06-30T22:52:31.258Z,23.70
2018-06-30T22:55:00.008Z,23.70
2018-06-30T22:57:28.799Z,23.60
2018-06-30T22:59:57.505Z,23.60
2018-06-30T23:02:26.707Z,23.50
2018-06-30T23:04:55.805Z,23.50
2018-06-30T23:07:24.379Z,23.40
2018-06-30T23:09:54.316Z,23.30
2018-06-30T23:12:23.810Z,23.30
2018-06-30T23:14:52.813Z,23.20
2018-06-30T23:17:22.368Z,23.20
2018-06-30T23:19:51.342Z,23.10
2018-06-30T23:22:34.168Z,23.10
2018-06-30T23:25:03.440Z,23.10
2018-06-30T23:27:32.641Z,23.10
2018-06-30T23:30:01.744Z,23.00
2018-06-30T23:32:31.219Z,22.90
2018-06-30T23:35:00.183Z,22.80
2018-06-30T23:37:29.029Z,22.80
2018-06-30T23:39:58.646Z,22.80
2018-06-30T23:42:28.510Z,22.70
2018-06-30T23:44:57.862Z,22.70
2018-06-30T23:47:28.001Z,22.60
2018-06-30T23:49:57.402Z,22.60
2018-06-30T23:52:26.898Z,22.50
2018-06-30T23:54:55.428Z,22.50
2018-06-30T23:57:24.016Z,22.40
2018-06-30T23:59:52.877Z,22.40
